createdAt,value
2023-02-28T00:02:49.431Z,-2.31
2023-02-28T00:07:51.873Z,-2.36
2023-02-28T00:12:55.432Z,-2.44
2023-02-28T00:17:56.968Z,-2.49
2023-02-28T00:22:58.483Z,-2.60
2023-02-28T00:27:59.986Z,-2.70
2023-02-28T00:33:01.547Z,-2.78
2023-02-28T00:38:03.524Z,-2.82
2023-02-28T00:43:05.091Z,-2.90
2023-02-28T00:48:07.222Z,-2.96
2023-02-28T00:53:08.774Z,-3.00
2023-02-28T00:58:10.304Z,-3.04
2023-02-28T01:03:11.797Z,-3.08
2023-02-28T01:08:14.729Z,-3.13
2023-02-28T01:13:16.786Z,-3.19
2023-02-28T01:18:18.868Z,-3.27
2023-02-28T01:23:22.733Z,-3.24
2023-02-28T01:28:24.549Z,-3.13
2023-02-28T01:33:26.378Z,-3.11
2023-02-28T01:38:28.447Z,-3.13
2023-02-28T01:43:52.053Z,-3.17
2023-02-28T01:49:12.616Z,-3.21
2023-02-28T01:54:19.282Z,-3.29
2023-02-28T01:59:41.566Z,-3.41
2023-02-28T02:04:52.636Z,-3.52
2023-02-28T02:10:03.150Z,-3.60
2023-02-28T02:15:20.037Z,-3.73
2023-02-28T02:20:43.165Z,-3.84
2023-02-28T02:25:50.925Z,-3.98
2023-02-28T02:31:23.550Z,-4.06
2023-02-28T02:36:37.317Z,-4.12
2023-02-28T02:41:54.970Z,-4.16
2023-02-28T02:47:03.013Z,-4.16
2023-02-28T02:52:09.418Z,-4.14
2023-02-28T02:57:16.872Z,-4.13
2023-02-28T03:02:20.026Z,-4.14
2023-02-28T03:07:21.746Z,-4.16
2023-02-28T03:12:51.325Z,-4.18
2023-02-28T03:18:09.605Z,-4.21
2023-02-28T03:23:14.595Z,-4.12
2023-02-28T03:28:23.986Z,-3.97
2023-02-28T03:33:35.697Z,-3.90
2023-02-28T03:38:45.066Z,-3.90
2023-02-28T03:43:53.017Z,-3.93
2023-02-28T03:49:13.216Z,-3.99
2023-02-28T03:54:20.345Z,-4.04
2023-02-28T03:59:31.584Z,-4.10
2023-02-28T04:04:33.328Z,-4.18
2023-02-28T04:09:35.207Z,-4.24
2023-02-28T04:14:36.726Z,-4.29
2023-02-28T04:19:38.303Z,-4.34
2023-02-28T04:24:42.414Z,-4.44
2023-02-28T04:29:45.561Z,-4.51
2023-02-28T04:34:47.066Z,-4.56
2023-02-28T04:39:48.509Z,-4.49
2023-02-28T04:44:50.018Z,-4.38
2023-02-28T04:49:51.557Z,-4.36
2023-02-28T04:54:53.025Z,-4.31
2023-02-28T04:59:54.521Z,-4.38
2023-02-28T05:04:56.101Z,-4.50
2023-02-28T05:09:57.625Z,-4.55
2023-02-28T05:14:59.113Z,-4.67
2023-02-28T05:20:13.413Z,-4.79
2023-02-28T05:25:20.122Z,-4.86
2023-02-28T05:30:21.486Z,-4.94
2023-02-28T05:35:23.095Z,-4.98
2023-02-28T05:40:24.702Z,-4.96
2023-02-28T05:45:26.204Z,-4.92
2023-02-28T05:50:27.666Z,-4.77
2023-02-28T05:55:29.234Z,-4.57
2023-02-28T06:00:30.732Z,-4.42
2023-02-28T06:05:32.298Z,-4.32
2023-02-28T06:10:37.053Z,-4.23
2023-02-28T06:15:38.801Z,-4.17
2023-02-28T06:20:40.458Z,-4.11
2023-02-28T06:25:46.326Z,-4.06
2023-02-28T06:30:47.934Z,-4.00
2023-02-28T06:35:53.179Z,-3.91
2023-02-28T06:40:56.203Z,-3.84
2023-02-28T06:46:00.293Z,-3.77
2023-02-28T06:51:08.370Z,-3.55
2023-02-28T06:56:12.544Z,-3.27
2023-02-28T07:01:15.080Z,-3.07
2023-02-28T07:06:19.003Z,-2.85
2023-02-28T07:11:23.535Z,-2.69
2023-02-28T07:16:26.462Z,-2.58
2023-02-28T07:21:28.484Z,-2.47
2023-02-28T07:26:30.312Z,-2.38
2023-02-28T07:31:32.188Z,-2.29
2023-02-28T07:36:34.026Z,-2.21
2023-02-28T07:41:38.591Z,-2.12
2023-02-28T07:46:40.166Z,-2.02
2023-02-28T07:51:41.660Z,-1.94
2023-02-28T07:56:43.155Z,-1.85
2023-02-28T08:01:45.691Z,-1.75
2023-02-28T08:06:47.205Z,-1.67
2023-02-28T08:11:48.672Z,-1.62
2023-02-28T08:16:50.285Z,-1.57
2023-02-28T08:21:51.728Z,-1.53
2023-02-28T08:26:53.185Z,-1.47
2023-02-28T08:31:54.774Z,-1.39
2023-02-28T08:36:56.720Z,-1.33
2023-02-28T08:42:07.201Z,-1.23
2023-02-28T08:47:09.441Z,-1.16
2023-02-28T08:52:11.135Z,-1.08
2023-02-28T08:57:12.635Z,-1.02
2023-02-28T09:02:15.365Z,-0.97
2023-02-28T09:07:16.941Z,-0.93
2023-02-28T09:12:18.427Z,-0.87
2023-02-28T09:17:20.517Z,-0.80
2023-02-28T09:22:22.463Z,-0.75
2023-02-28T09:27:23.933Z,-0.68
2023-02-28T09:32:25.461Z,-0.60
2023-02-28T09:37:31.828Z,-0.49
2023-02-28T09:42:35.422Z,-0.39
2023-02-28T09:47:43.757Z,-0.30
2023-02-28T09:52:50.998Z,-0.20
2023-02-28T09:57:53.668Z,-0.15
2023-02-28T10:02:55.091Z,-0.12
2023-02-28T10:08:17.099Z,-0.06
2023-02-28T10:13:46.595Z,0.02
2023-02-28T10:19:03.355Z,0.09
2023-02-28T10:24:16.834Z,0.17
2023-02-28T10:29:18.323Z,0.25
2023-02-28T10:34:19.775Z,0.32
2023-02-28T10:39:43.487Z,0.40
2023-02-28T10:44:45.033Z,0.44
2023-02-28T10:49:53.411Z,0.46
2023-02-28T10:55:16.076Z,0.52
2023-02-28T11:00:23.027Z,0.58
2023-02-28T11:05:33.894Z,0.61
2023-02-28T11:10:35.859Z,0.67
2023-02-28T11:15:37.992Z,0.76
2023-02-28T11:20:41.319Z,0.86
2023-02-28T11:25:59.584Z,0.95
2023-02-28T11:31:05.993Z,0.96
2023-02-28T11:36:14.138Z,1.05
2023-02-28T11:41:54.247Z,1.09
2023-02-28T11:47:01.753Z,1.11
2023-02-28T11:52:15.305Z,1.14
2023-02-28T11:57:31.788Z,1.19
2023-02-28T12:03:12.317Z,1.22
2023-02-28T12:08:32.909Z,1.21
2023-02-28T12:13:56.414Z,1.23
2023-02-28T12:19:16.957Z,1.32
2023-02-28T12:24:18.753Z,1.40
2023-02-28T12:29:26.118Z,1.45
2023-02-28T12:34:34.296Z,1.53
2023-02-28T12:39:50.271Z,1.65
2023-02-28T12:45:34.244Z,1.80
2023-02-28T12:50:37.173Z,1.90
2023-02-28T12:55:57.830Z,1.98
2023-02-28T13:01:29.102Z,2.01
2023-02-28T13:06:33.959Z,1.97
2023-02-28T13:11:43.701Z,2.01
2023-02-28T13:17:09.924Z,2.03
2023-02-28T13:22:40.356Z,2.06
2023-02-28T13:27:42.904Z,1.97
2023-02-28T13:32:44.542Z,1.96
2023-02-28T13:37:50.811Z,2.00
2023-02-28T13:42:53.531Z,1.95
2023-02-28T13:48:03.840Z,2.03
2023-02-28T13:53:14.498Z,2.10
2023-02-28T13:58:28.404Z,2.18
2023-02-28T14:03:35.670Z,2.21
2023-02-28T14:08:37.791Z,2.26
2023-02-28T14:13:46.231Z,2.29
2023-02-28T14:18:56.533Z,2.30
2023-02-28T14:24:07.268Z,2.37
2023-02-28T14:29:46.761Z,2.45
2023-02-28T14:40:18.927Z,2.60
2023-02-28T14:45:22.198Z,2.65
2023-02-28T14:50:30.693Z,2.66
2023-02-28T14:55:36.079Z,2.66
2023-02-28T15:00:48.483Z,2.72
2023-02-28T15:05:58.589Z,2.73
2023-02-28T15:11:01.684Z,2.67
2023-02-28T15:16:07.146Z,2.61
2023-02-28T15:21:14.411Z,2.51
2023-02-28T15:26:23.673Z,2.39
2023-02-28T15:31:46.824Z,2.23
2023-02-28T15:36:55.556Z,2.09
2023-02-28T15:42:18.769Z,1.97
2023-02-28T15:47:26.947Z,1.84
2023-02-28T15:52:37.405Z,1.68
2023-02-28T15:57:41.890Z,1.53
2023-02-28T16:02:43.584Z,1.39
2023-02-28T16:07:46.061Z,1.25
2023-02-28T16:12:47.649Z,1.11
2023-02-28T16:17:50.472Z,0.97
2023-02-28T16:22:53.002Z,0.83
2023-02-28T16:27:55.871Z,0.72
2023-02-28T16:32:57.364Z,0.60
2023-02-28T16:37:58.868Z,0.48
2023-02-28T16:43:01.767Z,0.39
2023-02-28T16:48:03.532Z,0.31
2023-02-28T16:53:06.396Z,0.18
2023-02-28T16:58:08.027Z,0.09
2023-02-28T17:03:32.696Z,0.01
2023-02-28T17:08:35.983Z,-0.10
2023-02-28T17:13:37.453Z,-0.24
2023-02-28T17:18:40.447Z,-0.40
2023-02-28T17:23:42.489Z,-0.52
2023-02-28T17:28:44.549Z,-0.61
2023-02-28T17:33:46.134Z,-0.70
2023-02-28T17:38:47.629Z,-0.74
2023-02-28T17:43:51.236Z,-0.79
2023-02-28T17:48:54.384Z,-0.82
2023-02-28T17:53:55.822Z,-0.83
2023-02-28T17:58:58.178Z,-0.85
2023-02-28T18:03:59.708Z,-0.87
2023-02-28T18:09:01.173Z,-0.92
2023-02-28T18:14:02.669Z,-0.97
2023-02-28T18:19:04.335Z,-1.02
2023-02-28T18:24:06.124Z,-1.08
2023-02-28T18:29:08.822Z,-1.13
2023-02-28T18:34:10.293Z,-1.20
2023-02-28T18:39:12.162Z,-1.25
2023-02-28T18:44:19.769Z,-1.30
2023-02-28T18:49:22.554Z,-1.36
2023-02-28T18:54:24.080Z,-1.38
2023-02-28T18:59:26.036Z,-1.43
2023-02-28T19:04:27.664Z,-1.52
2023-02-28T19:09:29.178Z,-1.61
2023-02-28T19:14:30.701Z,-1.69
2023-02-28T19:19:32.260Z,-1.76
2023-02-28T19:24:33.719Z,-1.80
2023-02-28T19:29:35.317Z,-1.81
2023-02-28T19:34:36.767Z,-1.84
2023-02-28T19:39:41.214Z,-1.91
2023-02-28T19:44:44.041Z,-1.96
2023-02-28T19:49:45.608Z,-1.97
2023-02-28T19:54:47.425Z,-1.99
2023-02-28T19:59:49.986Z,-2.01
2023-02-28T20:04:52.178Z,-2.06
2023-02-28T20:09:53.833Z,-2.09
2023-02-28T20:14:59.835Z,-2.12
2023-02-28T20:20:01.684Z,-2.11
2023-02-28T20:25:03.843Z,-1.98
2023-02-28T20:30:06.289Z,-1.86
2023-02-28T20:35:11.533Z,-1.87
2023-02-28T20:40:14.401Z,-1.92
2023-02-28T20:45:16.000Z,-1.99
2023-02-28T20:50:17.686Z,-2.03
2023-02-28T20:55:19.133Z,-2.08
2023-02-28T21:00:22.472Z,-2.17
2023-02-28T21:05:24.313Z,-2.35
2023-02-28T21:10:25.825Z,-2.50
2023-02-28T21:15:27.309Z,-2.67
2023-02-28T21:20:28.991Z,-2.71
2023-02-28T21:25:30.533Z,-2.73
2023-02-28T21:30:32.010Z,-2.77
2023-02-28T21:35:34.281Z,-2.81
2023-02-28T21:40:35.848Z,-2.90
2023-02-28T21:45:37.376Z,-2.97
2023-02-28T21:50:38.905Z,-2.87
2023-02-28T21:55:40.339Z,-2.74
2023-02-28T22:00:41.801Z,-2.69
2023-02-28T22:05:43.305Z,-2.69
2023-02-28T22:10:44.781Z,-2.68
2023-02-28T22:15:46.291Z,-2.73
2023-02-28T22:20:55.006Z,-2.76
2023-02-28T22:25:57.386Z,-2.80
2023-02-28T22:31:00.274Z,-2.87
2023-02-28T22:36:06.087Z,-2.95
2023-02-28T22:41:08.788Z,-3.04
2023-02-28T22:46:13.172Z,-3.03
2023-02-28T22:51:17.813Z,-2.93
2023-02-28T22:56:21.272Z,-2.90
2023-02-28T23:01:25.014Z,-2.91
2023-02-28T23:06:33.051Z,-2.95
2023-02-28T23:11:38.783Z,-3.00
2023-02-28T23:16:46.143Z,-3.06
2023-02-28T23:21:48.138Z,-3.10
2023-02-28T23:26:53.757Z,-3.02
2023-02-28T23:31:56.251Z,-2.91
2023-02-28T23:37:00.505Z,-2.85
2023-02-28T23:42:02.135Z,-2.86
2023-02-28T23:47:03.703Z,-2.93
2023-02-28T23:52:05.828Z,-3.01
2023-02-28T23:57:07.670Z,-3.07
